createdAt,value
2023-03-05T00:00:27.668Z,1.8
2023-03-05T00:01:43.966Z,1.9
2023-03-05T00:03:00.262Z,2.2
2023-03-05T00:04:16.556Z,2.1
2023-03-05T00:05:32.857Z,2.2
2023-03-05T00:06:49.149Z,1.9
2023-03-05T00:08:05.435Z,1.9
2023-03-05T00:11:53.345Z,2.1
2023-03-05T00:13:08.669Z,2.3
2023-03-05T00:14:23.965Z,2.3
2023-03-05T00:16:56.564Z,2.1
2023-03-05T00:18:12.863Z,2.1
2023-03-05T00:19:29.149Z,2.3
2023-03-05T00:20:45.444Z,2.1
2023-03-05T00:22:01.736Z,2.2
2023-03-05T00:23:18.039Z,2.2
2023-03-05T00:24:34.327Z,2.1
2023-03-05T00:27:06.924Z,1.9
2023-03-05T00:28:23.221Z,2.2
2023-03-05T00:29:38.528Z,1.9
2023-03-05T00:30:54.828Z,1.8
2023-03-05T00:32:10.144Z,2.4
2023-03-05T00:33:26.439Z,2.1
2023-03-05T00:34:42.722Z,2.3
2023-03-05T00:35:59.026Z,2.3
2023-03-05T00:37:15.327Z,2.1
2023-03-05T00:38:31.618Z,2.3
2023-03-05T00:39:47.000Z,2.2
2023-03-05T00:43:36.787Z,2.4
2023-03-05T00:44:53.079Z,2.3
2023-03-05T00:47:25.664Z,2.4
2023-03-05T00:48:40.995Z,2.1
2023-03-05T00:49:57.296Z,2.5
2023-03-05T00:51:13.587Z,2.1
2023-03-05T00:52:29.876Z,2.4
2023-03-05T00:53:46.174Z,2.3
2023-03-05T00:55:02.468Z,2.3
2023-03-05T00:56:18.758Z,2.2
2023-03-05T00:57:35.051Z,2.6
2023-03-05T00:58:51.343Z,2.2
2023-03-05T01:00:07.632Z,2.3
2023-03-05T01:01:23.929Z,2.2
2023-03-05T01:02:40.231Z,2.7
2023-03-05T01:05:12.822Z,2.2
2023-03-05T01:06:28.121Z,2.2
2023-03-05T01:07:44.436Z,2.2
2023-03-05T01:09:00.716Z,1.9
2023-03-05T01:10:17.011Z,2.3
2023-03-05T01:11:33.317Z,2
2023-03-05T01:12:49.595Z,2
2023-03-05T01:14:04.920Z,2
2023-03-05T01:15:20.242Z,2.1
2023-03-05T01:16:36.518Z,2.1
2023-03-05T01:17:52.811Z,2
2023-03-05T01:20:25.407Z,1.6
2023-03-05T01:21:41.713Z,2
2023-03-05T01:22:57.998Z,1.7
2023-03-05T01:24:14.285Z,1.9
2023-03-05T01:25:30.593Z,1.8
2023-03-05T01:26:46.879Z,1.8
2023-03-05T01:28:03.176Z,1.8
2023-03-05T01:29:19.474Z,1.9
2023-03-05T01:30:35.761Z,1.8
2023-03-05T01:31:51.075Z,2
2023-03-05T01:33:07.376Z,1.8
2023-03-05T01:34:23.661Z,1.7
2023-03-05T01:35:39.965Z,1.8
2023-03-05T01:36:56.264Z,1.6
2023-03-05T01:38:12.553Z,1.8
2023-03-05T01:39:28.848Z,1.6
2023-03-05T01:40:45.138Z,1.6
2023-03-05T01:42:00.468Z,2
2023-03-05T01:43:15.767Z,1.7
2023-03-05T01:44:32.064Z,1.4
2023-03-05T01:45:48.359Z,1.8
2023-03-05T01:47:04.644Z,1.6
2023-03-05T01:48:20.956Z,1.4
2023-03-05T01:49:37.235Z,1.6
2023-03-05T01:50:53.545Z,1.3
2023-03-05T01:52:09.839Z,1.3
2023-03-05T01:53:26.129Z,1.4
2023-03-05T01:54:42.432Z,1.5
2023-03-05T01:55:58.717Z,1.7
2023-03-05T01:57:15.022Z,1.6
2023-03-05T01:58:31.303Z,1.3
2023-03-05T01:59:46.626Z,1.4
2023-03-05T02:01:02.913Z,1.2
2023-03-05T02:02:19.209Z,1.6
2023-03-05T02:03:35.512Z,1.4
2023-03-05T02:04:51.787Z,1.4
2023-03-05T02:06:08.099Z,1.3
2023-03-05T02:07:24.388Z,1.4
2023-03-05T02:08:40.681Z,1.3
2023-03-05T02:09:56.984Z,1.3
2023-03-05T02:11:13.267Z,1.4
2023-03-05T02:13:45.867Z,1.5
2023-03-05T02:15:02.156Z,1.3
2023-03-05T02:16:17.474Z,1.3
2023-03-05T02:17:33.751Z,1.4
2023-03-05T02:18:50.054Z,1.2
2023-03-05T02:20:06.350Z,1.3
2023-03-05T02:21:22.634Z,1.4
2023-03-05T02:22:38.929Z,1.3
2023-03-05T02:23:55.229Z,1.3
2023-03-05T02:25:11.536Z,1.3
2023-03-05T02:26:27.825Z,1.4
2023-03-05T02:27:44.109Z,1.4
2023-03-05T02:29:00.405Z,1.2
2023-03-05T02:30:16.697Z,1.4
2023-03-05T02:31:32.997Z,1.2
2023-03-05T02:32:49.419Z,1.5
2023-03-05T02:34:05.714Z,1.6
2023-03-05T02:35:22.011Z,1.4
2023-03-05T02:36:38.292Z,1.4
2023-03-05T02:37:54.603Z,1.4
2023-03-05T02:39:10.900Z,1.4
2023-03-05T02:40:27.188Z,1.5
2023-03-05T02:42:59.769Z,1.3
2023-03-05T02:44:16.077Z,1.4
2023-03-05T02:45:32.372Z,1.5
2023-03-05T02:46:48.656Z,1.6
2023-03-05T02:48:04.960Z,1.5
2023-03-05T02:49:20.258Z,1.4
2023-03-05T02:50:36.557Z,1.6
2023-03-05T02:51:52.865Z,1.5
2023-03-05T02:53:09.155Z,1.4
2023-03-05T02:54:25.446Z,1.8
2023-03-05T02:55:41.748Z,1.6
2023-03-05T02:56:58.029Z,1.5
2023-03-05T02:58:14.318Z,1.8
2023-03-05T02:59:30.624Z,1.5
2023-03-05T03:00:46.911Z,1.6
2023-03-05T03:02:03.209Z,1.9
2023-03-05T03:03:19.513Z,1.4
2023-03-05T03:04:35.796Z,1.7
2023-03-05T03:05:51.114Z,1.6
2023-03-05T03:07:07.405Z,1.5
2023-03-05T03:08:23.709Z,2
2023-03-05T03:09:40.004Z,1.6
2023-03-05T03:10:56.295Z,1.5
2023-03-05T03:12:12.595Z,1.6
2023-03-05T03:13:28.880Z,1.5
2023-03-05T03:14:45.188Z,1.6
2023-03-05T03:16:01.464Z,1.8
2023-03-05T03:17:17.769Z,1.8
2023-03-05T03:18:34.061Z,1.7
2023-03-05T03:19:50.352Z,1.9
2023-03-05T03:21:06.642Z,2.6
2023-03-05T03:22:21.953Z,2
2023-03-05T03:23:38.263Z,2.1
2023-03-05T03:24:54.554Z,2.2
2023-03-05T03:26:10.840Z,2.2
2023-03-05T03:27:27.155Z,2.1
2023-03-05T03:28:43.436Z,2.1
2023-03-05T03:29:59.725Z,2.2
2023-03-05T03:31:16.025Z,2.2
2023-03-05T03:32:32.313Z,2.1
2023-03-05T03:33:48.625Z,2.5
2023-03-05T03:35:04.906Z,2.5
2023-03-05T03:37:37.511Z,2.4
2023-03-05T03:38:53.798Z,2.6
2023-03-05T03:40:09.114Z,2.5
2023-03-05T03:41:25.393Z,2.6
2023-03-05T03:42:41.693Z,2.8
2023-03-05T03:43:57.988Z,2.5
2023-03-05T03:45:14.281Z,2.9
2023-03-05T03:46:30.572Z,2.5
2023-03-05T03:47:46.884Z,2.5
2023-03-05T03:49:03.172Z,2.8
2023-03-05T03:50:19.459Z,2.5
2023-03-05T03:51:35.749Z,2.6
2023-03-05T03:52:52.053Z,2.9
2023-03-05T03:54:08.358Z,2.5
2023-03-05T03:55:24.639Z,2.7
2023-03-05T03:56:39.961Z,2.7
2023-03-05T03:57:56.255Z,2.5
2023-03-05T03:59:12.548Z,2.6
2023-03-05T04:00:28.832Z,2.6
2023-03-05T04:01:45.142Z,2.5
2023-03-05T04:03:01.426Z,2.7
2023-03-05T04:04:17.726Z,2.6
2023-03-05T04:05:34.012Z,2.4
2023-03-05T04:06:50.303Z,2.7
2023-03-05T04:08:06.601Z,2.7
2023-03-05T04:10:39.190Z,2.7
2023-03-05T04:11:55.498Z,2.7
2023-03-05T04:13:10.808Z,2.8
2023-03-05T04:14:27.105Z,2.7
2023-03-05T04:15:43.396Z,2.4
2023-03-05T04:16:59.694Z,2.8
2023-03-05T04:18:15.981Z,2.5
2023-03-05T04:19:32.000Z,2.7
2023-03-05T04:20:48.561Z,2.6
2023-03-05T04:22:04.875Z,2.6
2023-03-05T04:24:37.463Z,2.2
2023-03-05T04:25:53.740Z,2.6
2023-03-05T04:27:10.048Z,2.5
2023-03-05T04:28:26.338Z,2.6
2023-03-05T04:29:41.660Z,2.3
2023-03-05T04:30:57.946Z,2.4
2023-03-05T04:32:14.237Z,2.4
2023-03-05T04:33:30.536Z,2.4
2023-03-05T04:34:46.836Z,2.3
2023-03-05T04:36:03.132Z,2.3
2023-03-05T04:38:35.705Z,2.1
2023-03-05T04:39:52.016Z,2
2023-03-05T04:41:08.298Z,2.1
2023-03-05T04:42:24.605Z,2.3
2023-03-05T04:43:40.882Z,1.9
2023-03-05T04:44:57.177Z,2.2
2023-03-05T04:46:12.505Z,2.2
2023-03-05T04:47:28.783Z,1.9
2023-03-05T04:48:45.080Z,2.1
2023-03-05T04:50:01.375Z,1.9
2023-03-05T04:51:17.672Z,1.9
2023-03-05T04:52:33.975Z,1.9
2023-03-05T04:53:50.272Z,2
2023-03-05T04:55:06.570Z,1.7
2023-03-05T04:56:22.853Z,1.8
2023-03-05T04:57:39.150Z,1.6
2023-03-05T04:58:55.435Z,1.6
2023-03-05T05:00:11.736Z,1.5
2023-03-05T05:01:28.038Z,1.5
2023-03-05T05:02:43.339Z,1.7
2023-03-05T05:03:58.658Z,1.6
2023-03-05T05:05:14.958Z,1.4
2023-03-05T05:06:31.257Z,1.8
2023-03-05T05:07:47.537Z,1.7
2023-03-05T05:09:03.839Z,1.5
2023-03-05T05:11:36.431Z,1.7
2023-03-05T05:12:52.720Z,1.6
2023-03-05T05:14:08.964Z,1.6
2023-03-05T05:15:25.254Z,1.7
2023-03-05T05:16:41.503Z,1.5
2023-03-05T05:17:57.751Z,1.8
2023-03-05T05:19:14.047Z,1.9
2023-03-05T05:20:29.359Z,1.8
2023-03-05T05:21:45.620Z,1.8
2023-03-05T05:23:01.862Z,1.8
2023-03-05T05:24:18.101Z,1.9
2023-03-05T05:25:34.349Z,1.8
2023-03-05T05:26:50.575Z,1.7
2023-03-05T05:28:06.833Z,1.7
2023-03-05T05:29:23.063Z,1.6
2023-03-05T05:30:39.311Z,1.6
2023-03-05T05:31:55.544Z,1.6
2023-03-05T05:34:28.031Z,1.7
2023-03-05T05:35:44.263Z,2.2
2023-03-05T05:36:59.523Z,2.6
2023-03-05T05:38:15.776Z,2
2023-03-05T05:39:32.016Z,1.9
2023-03-05T05:40:48.256Z,1.8
2023-03-05T05:42:04.499Z,2
2023-03-05T05:43:20.726Z,2
2023-03-05T05:44:36.966Z,1.8
2023-03-05T05:45:53.212Z,1.7
2023-03-05T05:47:09.459Z,1.8
2023-03-05T05:48:25.699Z,1.9
2023-03-05T05:49:41.943Z,1.8
2023-03-05T05:50:58.172Z,2
2023-03-05T05:52:14.409Z,1.8
2023-03-05T05:53:29.669Z,1.9
2023-03-05T05:54:45.917Z,1.9
2023-03-05T05:56:02.155Z,1.8
2023-03-05T05:57:18.392Z,2.1
2023-03-05T05:58:34.648Z,2
2023-03-05T05:59:50.868Z,2.1
2023-03-05T06:01:07.116Z,1.9
2023-03-05T06:02:23.355Z,2
2023-03-05T06:03:39.601Z,1.8
2023-03-05T06:04:55.847Z,2
2023-03-05T06:06:12.079Z,2
2023-03-05T06:07:28.332Z,1.9
2023-03-05T06:08:44.566Z,3.5
2023-03-05T06:09:59.830Z,3.4
2023-03-05T06:11:16.063Z,3.2
2023-03-05T06:12:32.311Z,4.2
2023-03-05T06:13:48.542Z,3
2023-03-05T06:15:04.774Z,2.5
2023-03-05T06:17:37.265Z,2.3
2023-03-05T06:18:53.509Z,2.2
2023-03-05T06:20:09.747Z,2.4
2023-03-05T06:21:25.997Z,2.3
2023-03-05T06:22:42.232Z,2.3
2023-03-05T06:23:58.463Z,2.5
2023-03-05T06:25:14.713Z,2.4
2023-03-05T06:26:29.965Z,2.5
2023-03-05T06:27:46.206Z,2.4
2023-03-05T06:29:02.445Z,2.4
2023-03-05T06:30:18.689Z,2.3
2023-03-05T06:31:34.926Z,2.6
2023-03-05T06:32:51.176Z,2.1
2023-03-05T06:34:07.417Z,2.3
2023-03-05T06:35:23.651Z,2.3
2023-03-05T06:36:39.901Z,2.5
2023-03-05T06:37:56.123Z,2.4
2023-03-05T06:40:28.612Z,2.2
2023-03-05T06:41:44.849Z,2.2
2023-03-05T06:43:00.109Z,2.8
2023-03-05T06:44:16.347Z,3.2
2023-03-05T06:45:32.596Z,3.8
2023-03-05T06:46:48.834Z,3.7
2023-03-05T06:48:05.080Z,3.3
2023-03-05T06:49:21.316Z,3.8
2023-03-05T06:50:37.551Z,3.7
2023-03-05T06:51:53.793Z,3.6
2023-03-05T06:53:10.044Z,2.6
2023-03-05T06:54:26.276Z,2.1
2023-03-05T06:55:42.515Z,2.1
2023-03-05T06:56:58.763Z,1.8
2023-03-05T06:58:15.000Z,1.9
2023-03-05T06:59:30.247Z,2
2023-03-05T07:00:46.498Z,2.2
2023-03-05T07:02:02.749Z,1.9
2023-03-05T07:03:18.980Z,1.8
2023-03-05T07:04:35.222Z,2
2023-03-05T07:05:51.464Z,2.3
2023-03-05T07:07:07.712Z,2.4
2023-03-05T07:08:23.936Z,2.9
2023-03-05T07:09:40.191Z,3.6
2023-03-05T07:10:56.432Z,3.3
2023-03-05T07:12:12.655Z,4
2023-03-05T07:13:28.916Z,4.8
2023-03-05T07:14:45.142Z,3
2023-03-05T07:16:00.398Z,4
2023-03-05T07:17:16.645Z,3.3
2023-03-05T07:18:32.880Z,2.8
2023-03-05T07:19:49.119Z,3.7
2023-03-05T07:21:05.355Z,3.3
2023-03-05T07:22:21.597Z,2.9
2023-03-05T07:23:37.839Z,3.1
2023-03-05T07:24:54.091Z,3.1
2023-03-05T07:26:10.334Z,3
2023-03-05T07:27:26.567Z,3.6
2023-03-05T07:28:42.807Z,3.1
2023-03-05T07:29:59.041Z,3.7
2023-03-05T07:31:15.289Z,3.2
2023-03-05T07:32:30.544Z,3.4
2023-03-05T07:33:46.795Z,3.1
2023-03-05T07:35:03.036Z,3.1
2023-03-05T07:36:19.265Z,3.4
2023-03-05T07:37:35.509Z,3.2
2023-03-05T07:38:51.747Z,3.3
2023-03-05T07:40:07.995Z,3.1
2023-03-05T07:41:24.240Z,4.4
2023-03-05T07:42:40.482Z,5.7
2023-03-05T07:43:56.704Z,6.4
2023-03-05T07:45:12.955Z,4.5
2023-03-05T07:46:29.203Z,3.6
2023-03-05T07:47:45.444Z,4.5
2023-03-05T07:49:00.687Z,3.8
2023-03-05T07:50:16.941Z,4.2
2023-03-05T07:51:33.173Z,4.2
2023-03-05T07:52:49.410Z,4.2
2023-03-05T07:54:05.658Z,4.4
2023-03-05T07:55:21.894Z,5.6
2023-03-05T07:56:38.132Z,5.5
2023-03-05T07:57:54.378Z,5.7
2023-03-05T07:59:10.627Z,5.5
2023-03-05T08:00:26.861Z,4.7
2023-03-05T08:01:43.094Z,4.8
2023-03-05T08:04:15.571Z,4
2023-03-05T08:05:30.846Z,4.7
2023-03-05T08:06:47.083Z,4.5
2023-03-05T08:08:03.316Z,3.7
2023-03-05T08:09:19.563Z,4.2
2023-03-05T08:10:35.804Z,4
2023-03-05T08:11:52.045Z,4
2023-03-05T08:13:08.290Z,3.5
2023-03-05T08:14:24.521Z,3.6
2023-03-05T08:15:40.757Z,3.7
2023-03-05T08:16:56.995Z,3.5
2023-03-05T08:18:13.242Z,3.7
2023-03-05T08:19:29.465Z,3.8
2023-03-05T08:20:45.706Z,3.6
2023-03-05T08:22:00.973Z,3.8
2023-03-05T08:23:17.209Z,3.4
2023-03-05T08:24:33.461Z,3.4
2023-03-05T08:25:49.701Z,3.4
2023-03-05T08:27:05.931Z,3.6
2023-03-05T08:28:22.169Z,3.5
2023-03-05T08:29:38.417Z,3.4
2023-03-05T08:30:54.656Z,3.1
2023-03-05T08:32:10.909Z,3.3
2023-03-05T08:33:27.139Z,3.3
2023-03-05T08:34:43.370Z,3.4
2023-03-05T08:35:59.612Z,3.5
2023-03-05T08:37:15.861Z,4
2023-03-05T08:38:31.112Z,3.5
2023-03-05T08:39:47.357Z,4.6
2023-03-05T08:42:19.845Z,3.5
2023-03-05T08:43:36.089Z,4
2023-03-05T08:44:52.311Z,3.3
2023-03-05T08:46:08.563Z,3.5
2023-03-05T08:47:24.806Z,3.6
2023-03-05T08:48:41.039Z,3.3
2023-03-05T08:49:57.283Z,3.7
2023-03-05T08:51:13.515Z,3.5
2023-03-05T08:52:29.773Z,3.3
2023-03-05T08:53:46.007Z,3.1
2023-03-05T08:55:01.258Z,3.3
2023-03-05T08:57:33.742Z,3.4
2023-03-05T08:58:49.986Z,3.4
2023-03-05T09:00:06.221Z,4
2023-03-05T09:01:22.468Z,4.8
2023-03-05T09:02:38.710Z,5
2023-03-05T09:03:54.949Z,4.2
2023-03-05T09:05:11.190Z,3.4
2023-03-05T09:06:27.429Z,2.9
2023-03-05T09:07:43.676Z,3.1
2023-03-05T09:08:59.909Z,2.9
2023-03-05T09:10:16.141Z,3.2
2023-03-05T09:11:31.395Z,3.5
2023-03-05T09:12:47.648Z,3
2023-03-05T09:14:03.895Z,3.3
2023-03-05T09:15:20.122Z,2.9
2023-03-05T09:16:36.364Z,3.2
2023-03-05T09:17:52.604Z,3.1
2023-03-05T09:19:07.879Z,3.2
2023-03-05T09:20:24.114Z,3
2023-03-05T09:21:40.354Z,2.7
2023-03-05T09:22:56.599Z,3
2023-03-05T09:24:12.827Z,3.3
2023-03-05T09:25:29.081Z,3.2
2023-03-05T09:26:45.313Z,3.3
2023-03-05T09:28:01.546Z,3.5
2023-03-05T09:29:17.784Z,3.6
2023-03-05T09:30:34.031Z,3.7
2023-03-05T09:31:50.273Z,3.9
2023-03-05T09:33:06.524Z,3.7
2023-03-05T09:34:22.763Z,3.4
2023-03-05T09:35:38.006Z,3.5
2023-03-05T09:36:54.245Z,3.5
2023-03-05T09:38:10.491Z,3.5
2023-03-05T09:39:26.734Z,3.7
2023-03-05T09:40:42.967Z,3.9
2023-03-05T09:41:59.210Z,4
2023-03-05T09:43:15.464Z,3.9
2023-03-05T09:44:31.692Z,3.8
2023-03-05T09:45:47.942Z,4.1
2023-03-05T09:47:04.176Z,3.9
2023-03-05T09:48:20.418Z,4.8
2023-03-05T09:49:36.659Z,4.5
2023-03-05T09:50:52.898Z,4.1
2023-03-05T09:52:08.166Z,4.1
2023-03-05T09:53:24.390Z,3.7
2023-03-05T09:54:40.638Z,3.9
2023-03-05T09:55:56.874Z,4.3
2023-03-05T09:57:13.128Z,3.9
2023-03-05T09:58:29.364Z,3.9
2023-03-05T09:59:45.607Z,3.3
2023-03-05T10:01:01.848Z,3.8
2023-03-05T10:02:18.088Z,3.7
2023-03-05T10:03:34.327Z,3.8
2023-03-05T10:04:50.572Z,3.3
2023-03-05T10:06:06.812Z,4
2023-03-05T10:07:23.048Z,4.2
2023-03-05T10:08:38.298Z,4
2023-03-05T10:09:54.534Z,3.6
2023-03-05T10:11:10.777Z,4
2023-03-05T10:12:27.024Z,4.2
2023-03-05T10:13:43.268Z,4.2
2023-03-05T10:14:59.501Z,4.6
2023-03-05T10:16:15.738Z,5.3
2023-03-05T10:17:31.990Z,5.1
2023-03-05T10:18:48.230Z,5.5
2023-03-05T10:20:04.464Z,4.8
2023-03-05T10:21:20.000Z,4.9
2023-03-05T10:22:36.955Z,4.6
2023-03-05T10:23:53.183Z,4.8
2023-03-05T10:25:09.557Z,4.9
2023-03-05T10:26:25.791Z,4.6
2023-03-05T10:27:42.020Z,5.2
2023-03-05T10:28:58.268Z,5
2023-03-05T10:30:14.506Z,6.1
2023-03-05T10:31:30.748Z,6.1
2023-03-05T10:32:46.999Z,6.2
2023-03-05T10:34:03.239Z,5.6
2023-03-05T10:35:19.472Z,4.4
2023-03-05T10:37:51.962Z,4.2
2023-03-05T10:39:08.195Z,4
2023-03-05T10:40:24.432Z,4.1
2023-03-05T10:41:39.698Z,4.6
2023-03-05T10:42:55.930Z,4.3
2023-03-05T10:44:12.179Z,4.1
2023-03-05T10:45:28.414Z,4.5
2023-03-05T10:46:44.642Z,4.5
2023-03-05T10:48:00.890Z,4.4
2023-03-05T10:49:17.142Z,4.2
2023-03-05T10:50:33.376Z,3.9
2023-03-05T10:51:49.625Z,4
2023-03-05T10:53:05.844Z,4.3
2023-03-05T10:54:22.104Z,4.6
2023-03-05T10:55:38.341Z,4.3
2023-03-05T10:56:54.570Z,4.1
2023-03-05T10:58:09.835Z,4.4
2023-03-05T10:59:26.084Z,4
2023-03-05T11:00:42.306Z,4
2023-03-05T11:01:58.551Z,3.9
2023-03-05T11:03:14.790Z,4
2023-03-05T11:04:31.025Z,3.7
2023-03-05T11:05:47.287Z,4
2023-03-05T11:07:03.508Z,3.9
2023-03-05T11:08:19.751Z,3.9
2023-03-05T11:09:35.999Z,4.4
2023-03-05T11:10:52.240Z,4.3
2023-03-05T11:12:08.480Z,4.3
2023-03-05T11:13:24.720Z,4.6
2023-03-05T11:14:39.975Z,4.5
2023-03-05T11:15:56.221Z,4.8
2023-03-05T11:17:12.450Z,5.4
2023-03-05T11:18:28.708Z,4.9
2023-03-05T11:19:44.936Z,5.1
2023-03-05T11:21:01.169Z,4.1
2023-03-05T11:22:17.424Z,4.7
2023-03-05T11:23:33.666Z,4.7
2023-03-05T11:24:49.902Z,4.1
2023-03-05T11:26:06.134Z,4.3
2023-03-05T11:27:22.392Z,4.2
2023-03-05T11:28:38.618Z,4.2
2023-03-05T11:29:54.864Z,3.9
2023-03-05T11:31:10.120Z,4.1
2023-03-05T11:32:26.365Z,4.6
2023-03-05T11:33:42.609Z,4.4
2023-03-05T11:34:58.834Z,4.4
2023-03-05T11:37:31.321Z,4.3
2023-03-05T11:38:47.571Z,4
2023-03-05T11:40:03.811Z,3.6
2023-03-05T11:41:20.042Z,3.5
2023-03-05T11:42:36.276Z,3.7
2023-03-05T11:43:52.514Z,4
2023-03-05T11:45:08.775Z,3.6
2023-03-05T11:46:24.997Z,3.7
2023-03-05T11:47:40.270Z,4.3
2023-03-05T11:48:56.511Z,3.6
2023-03-05T11:50:12.752Z,3.4
2023-03-05T11:51:28.990Z,3.5
2023-03-05T11:52:45.223Z,3.2
2023-03-05T11:54:01.464Z,3.4
2023-03-05T11:55:17.713Z,3.4
2023-03-05T11:56:33.935Z,3.2
2023-03-05T11:57:50.190Z,3.4
2023-03-05T11:59:06.431Z,3.4
2023-03-05T12:00:22.674Z,3.3
2023-03-05T12:01:38.912Z,3.7
2023-03-05T12:02:55.150Z,3.6
2023-03-05T12:04:10.414Z,3.7
2023-03-05T12:05:26.652Z,3.5
2023-03-05T12:06:42.887Z,3.6
2023-03-05T12:07:59.127Z,3.9
2023-03-05T12:09:15.373Z,3.7
2023-03-05T12:10:31.611Z,3.9
2023-03-05T12:11:47.859Z,3.7
2023-03-05T12:13:04.087Z,3.5
2023-03-05T12:14:20.338Z,2.8
2023-03-05T12:15:36.572Z,3
2023-03-05T12:16:52.804Z,3.3
2023-03-05T12:18:09.063Z,3.1
2023-03-05T12:19:25.288Z,3
2023-03-05T12:20:40.552Z,2.9
2023-03-05T12:21:56.781Z,3
2023-03-05T12:23:13.030Z,3.2
2023-03-05T12:24:29.262Z,3
2023-03-05T12:25:45.521Z,2.8
2023-03-05T12:27:01.761Z,3.2
2023-03-05T12:28:18.001Z,3.7
2023-03-05T12:29:34.225Z,4.5
2023-03-05T12:30:50.479Z,4.5
2023-03-05T12:32:06.711Z,2.8
2023-03-05T12:33:22.950Z,3.1
2023-03-05T12:34:39.197Z,2.9
2023-03-05T12:35:55.445Z,3.2
2023-03-05T12:38:26.936Z,2.8
2023-03-05T12:39:43.172Z,3.1
2023-03-05T12:40:59.409Z,3.2
2023-03-05T12:43:31.894Z,2.7
2023-03-05T12:44:48.133Z,3.3
2023-03-05T12:46:04.376Z,3.4
2023-03-05T12:47:20.608Z,3.3
2023-03-05T12:48:36.847Z,3.2
2023-03-05T12:49:53.091Z,2.9
2023-03-05T12:51:09.345Z,3
2023-03-05T12:52:25.581Z,2.9
2023-03-05T12:53:41.819Z,3
2023-03-05T12:54:57.074Z,3
2023-03-05T12:56:13.321Z,2.9
2023-03-05T12:57:29.547Z,3.3
2023-03-05T12:58:45.807Z,3.2
2023-03-05T13:01:18.284Z,2.4
2023-03-05T13:02:33.550Z,3
2023-03-05T13:03:48.804Z,2.7
2023-03-05T13:05:05.044Z,3.5
2023-03-05T13:06:21.280Z,2.8
2023-03-05T13:07:37.513Z,3.1
2023-03-05T13:10:09.994Z,3
2023-03-05T13:11:26.250Z,2.7
2023-03-05T13:12:42.475Z,2
2023-03-05T13:13:58.727Z,2.5
2023-03-05T13:15:14.972Z,2.3
2023-03-05T13:16:31.213Z,2
2023-03-05T13:17:47.434Z,2.2
2023-03-05T13:19:03.691Z,1.9
2023-03-05T13:20:18.936Z,1.9
2023-03-05T13:21:35.175Z,2
2023-03-05T13:24:07.672Z,2
2023-03-05T13:25:22.925Z,2.3
2023-03-05T13:26:38.179Z,2.5
2023-03-05T13:27:54.422Z,2.2
2023-03-05T13:29:10.668Z,2.1
2023-03-05T13:30:26.897Z,2
2023-03-05T13:31:43.154Z,2.2
2023-03-05T13:32:59.391Z,2.3
2023-03-05T13:34:14.641Z,2.4
2023-03-05T13:35:30.883Z,2.5
2023-03-05T13:36:47.136Z,2.6
2023-03-05T13:39:19.605Z,2.6
2023-03-05T13:40:35.843Z,2.6
2023-03-05T13:43:08.343Z,3
2023-03-05T13:44:24.569Z,3.4
2023-03-05T13:45:40.820Z,2.8
2023-03-05T13:46:57.062Z,3.2
2023-03-05T13:48:13.292Z,2.9
2023-03-05T13:49:29.526Z,3.1
2023-03-05T13:50:44.784Z,3.3
2023-03-05T13:52:01.042Z,4.8
2023-03-05T13:54:33.520Z,4.5
2023-03-05T13:55:49.755Z,4.2
2023-03-05T13:57:05.984Z,4.3
2023-03-05T13:58:22.233Z,4
2023-03-05T13:59:38.480Z,4.2
2023-03-05T14:00:54.706Z,4
2023-03-05T14:02:10.949Z,4.3
2023-03-05T14:03:27.193Z,4.1
2023-03-05T14:04:43.443Z,4.2
2023-03-05T14:05:59.680Z,4.1
2023-03-05T14:07:14.932Z,4.1
2023-03-05T14:08:31.182Z,4.6
2023-03-05T14:09:46.442Z,5.8
2023-03-05T14:11:01.692Z,5.3
2023-03-05T14:12:17.941Z,5
2023-03-05T14:13:34.174Z,4.9
2023-03-05T14:14:50.408Z,4.8
2023-03-05T14:17:22.897Z,4.7
2023-03-05T14:18:39.148Z,4.9
2023-03-05T14:19:55.368Z,4.5
2023-03-05T14:21:11.612Z,4.9
2023-03-05T14:22:27.000Z,4.4
2023-03-05T14:23:44.092Z,4.4
2023-03-05T14:25:00.331Z,4.6
2023-03-05T14:26:16.586Z,4.3
2023-03-05T14:27:31.830Z,4.2
2023-03-05T14:28:48.081Z,3.8
2023-03-05T14:30:04.324Z,3.5
2023-03-05T14:32:36.805Z,3
2023-03-05T14:33:52.069Z,3.8
2023-03-05T14:35:07.309Z,3
2023-03-05T14:36:23.560Z,3.2
2023-03-05T14:37:39.806Z,3.7
2023-03-05T14:40:12.273Z,2.7
2023-03-05T14:41:28.523Z,2.7
2023-03-05T14:42:44.765Z,2.8
2023-03-05T14:44:01.000Z,2.5
2023-03-05T14:45:17.242Z,2.7
2023-03-05T14:46:33.491Z,2.8
2023-03-05T14:47:49.721Z,2.6
2023-03-05T14:49:05.972Z,2.9
2023-03-05T14:50:22.210Z,2.8
2023-03-05T14:51:37.457Z,2.7
2023-03-05T14:52:53.702Z,2.6
2023-03-05T14:54:09.942Z,2.7
2023-03-05T14:55:26.179Z,2.3
2023-03-05T14:56:42.430Z,2.2
2023-03-05T14:57:58.660Z,2.1
2023-03-05T14:59:14.899Z,2.2
2023-03-05T15:00:31.141Z,2.1
2023-03-05T15:01:46.415Z,2.2
2023-03-05T15:03:01.662Z,2.1
2023-03-05T15:04:17.908Z,1.9
2023-03-05T15:05:34.139Z,2.2
2023-03-05T15:06:50.391Z,2.2
2023-03-05T15:08:06.621Z,2.4
2023-03-05T15:09:22.871Z,2.3
2023-03-05T15:10:39.117Z,2.2
2023-03-05T15:11:55.342Z,2.2
2023-03-05T15:13:11.595Z,2.8
2023-03-05T15:14:27.827Z,2.5
2023-03-05T15:15:43.088Z,1.9
2023-03-05T15:16:58.349Z,1.9
2023-03-05T15:18:14.600Z,1.9
2023-03-05T15:19:30.822Z,1.8
2023-03-05T15:20:47.071Z,2.3
2023-03-05T15:22:03.319Z,2.1
2023-03-05T15:23:19.552Z,2.1
2023-03-05T15:24:35.802Z,2.2
2023-03-05T15:25:52.035Z,2.4
2023-03-05T15:27:08.266Z,2.6
2023-03-05T15:28:24.507Z,2.9
2023-03-05T15:29:40.745Z,2.6
2023-03-05T15:30:57.004Z,2.2
2023-03-05T15:32:13.238Z,2.4
2023-03-05T15:33:29.487Z,2.6
2023-03-05T15:34:44.729Z,2.4
2023-03-05T15:36:00.977Z,2.4
2023-03-05T15:37:17.221Z,2.7
2023-03-05T15:38:33.446Z,2.4
2023-03-05T15:39:49.700Z,2.5
2023-03-05T15:41:05.927Z,2.8
2023-03-05T15:42:22.185Z,2.6
2023-03-05T15:43:38.421Z,2.3
2023-03-05T15:44:54.657Z,2.3
2023-03-05T15:46:10.910Z,2.4
2023-03-05T15:47:27.143Z,3.2
2023-03-05T15:48:43.378Z,3.1
2023-03-05T15:49:59.612Z,4.2
2023-03-05T15:51:14.880Z,4.2
2023-03-05T15:52:31.120Z,4.3
2023-03-05T15:53:47.356Z,2.9
2023-03-05T15:55:03.610Z,2.9
2023-03-05T15:56:19.847Z,3.7
2023-03-05T15:57:36.073Z,2.7
2023-03-05T15:58:52.319Z,3.5
2023-03-05T16:00:08.558Z,3.5
2023-03-05T16:01:24.813Z,3.8
2023-03-05T16:02:41.041Z,3.5
2023-03-05T16:03:57.282Z,3.8
2023-03-05T16:05:13.533Z,3.6
2023-03-05T16:06:29.767Z,3.3
2023-03-05T16:07:45.020Z,3.9
2023-03-05T16:09:01.263Z,3.5
2023-03-05T16:10:17.508Z,3.4
2023-03-05T16:11:33.737Z,3.4
2023-03-05T16:12:49.996Z,3.4
2023-03-05T16:14:06.234Z,3.1
2023-03-05T16:15:22.476Z,3.5
2023-03-05T16:16:38.700Z,3.7
2023-03-05T16:17:54.955Z,3.6
2023-03-05T16:19:11.200Z,4
2023-03-05T16:20:27.440Z,3.4
2023-03-05T16:21:43.672Z,3.2
2023-03-05T16:22:59.921Z,3.4
2023-03-05T16:24:15.173Z,3.4
2023-03-05T16:26:47.648Z,4.8
2023-03-05T16:28:03.883Z,3.8
2023-03-05T16:29:20.125Z,4.1
2023-03-05T16:30:36.366Z,3.5
2023-03-05T16:31:52.606Z,3.3
2023-03-05T16:34:25.104Z,3.3
2023-03-05T16:35:41.330Z,3.1
2023-03-05T16:36:57.573Z,2.7
2023-03-05T16:38:13.825Z,3.2
2023-03-05T16:39:30.058Z,3.4
2023-03-05T16:40:46.309Z,4.2
2023-03-05T16:42:01.560Z,5.4
2023-03-05T16:43:17.800Z,4.3
2023-03-05T16:44:34.045Z,5
2023-03-05T16:45:50.284Z,4.2
2023-03-05T16:47:06.510Z,3.8
2023-03-05T16:48:22.770Z,3.6
2023-03-05T16:49:39.007Z,3.9
2023-03-05T16:50:55.250Z,4.3
2023-03-05T16:52:11.481Z,4.6
2023-03-05T16:53:27.714Z,6.3
2023-03-05T16:54:43.969Z,5.4
2023-03-05T16:56:00.207Z,8.9
2023-03-05T16:57:16.437Z,7.1
2023-03-05T16:58:31.692Z,3.7
2023-03-05T16:59:47.942Z,3.8
2023-03-05T17:01:04.181Z,3.1
2023-03-05T17:02:20.421Z,3.1
2023-03-05T17:03:36.655Z,3.1
2023-03-05T17:04:52.902Z,11.1
2023-03-05T17:06:09.145Z,11.4
2023-03-05T17:07:25.393Z,16.3
2023-03-05T17:08:41.639Z,5.5
2023-03-05T17:09:57.872Z,9.8
2023-03-05T17:11:14.110Z,5.4
2023-03-05T17:12:30.358Z,4.9
2023-03-05T17:13:46.585Z,13.9
2023-03-05T17:15:01.843Z,9.4
2023-03-05T17:16:18.077Z,7.4
2023-03-05T17:17:34.335Z,6.3
2023-03-05T17:18:50.572Z,13.5
2023-03-05T17:20:06.810Z,10.9
2023-03-05T17:21:23.041Z,5.9
2023-03-05T17:22:39.287Z,9.1
2023-03-05T17:23:55.540Z,11.9
2023-03-05T17:25:11.827Z,16.3
2023-03-05T17:27:44.419Z,3.9
2023-03-05T17:29:00.710Z,4.5
2023-03-05T17:30:17.010Z,4.1
2023-03-05T17:31:32.320Z,7
2023-03-05T17:32:48.608Z,3.4
2023-03-05T17:34:04.897Z,3.5
2023-03-05T17:35:21.198Z,3.7
2023-03-05T17:36:37.497Z,3.8
2023-03-05T17:37:53.792Z,4.1
2023-03-05T17:39:10.087Z,4.1
2023-03-05T17:40:26.380Z,16.9
2023-03-05T17:41:42.680Z,5.2
2023-03-05T17:42:58.960Z,5.8
2023-03-05T17:44:15.259Z,5.6
2023-03-05T17:45:31.567Z,7.3
2023-03-05T17:46:47.862Z,12.4
2023-03-05T17:48:03.169Z,8.6
2023-03-05T17:50:34.783Z,6.6
2023-03-05T17:51:50.097Z,15.5
2023-03-05T17:53:06.382Z,4.7
2023-03-05T17:54:22.682Z,7
2023-03-05T17:55:38.967Z,7.6
2023-03-05T17:56:55.275Z,6.9
2023-03-05T17:58:11.559Z,5.7
2023-03-05T17:59:27.862Z,6
2023-03-05T18:00:44.153Z,6.7
2023-03-05T18:02:00.446Z,7.4
2023-03-05T18:03:16.737Z,7.6
2023-03-05T18:04:33.038Z,7
2023-03-05T18:05:49.339Z,11.4
2023-03-05T18:07:05.621Z,6
2023-03-05T18:08:20.946Z,7.5
2023-03-05T18:09:37.234Z,12.2
2023-03-05T18:10:53.528Z,6.7
2023-03-05T18:12:09.817Z,6.2
2023-03-05T18:13:26.110Z,5.8
2023-03-05T18:14:42.414Z,5.2
2023-03-05T18:15:58.707Z,5.1
2023-03-05T18:17:14.991Z,5.2
2023-03-05T18:18:31.298Z,6.3
2023-03-05T18:19:47.601Z,6.8
2023-03-05T18:21:03.879Z,6.2
2023-03-05T18:22:20.177Z,6.3
2023-03-05T18:23:36.483Z,7.2